sensor_id;sensor_type;location;lat;lon;timestamp;P1;P2;P0
12542;PMS3003;6337;49.556;25.594;2023-08-08T00:00:54;0.70;0.70;
12542;PMS3003;6337;49.556;25.594;2023-08-08T00:03:21;1.10;1.00;
12542;PMS3003;6337;49.556;25.594;2023-08-08T00:05:49;2.03;0.90;
12542;PMS3003;6337;49.556;25.594;2023-08-08T00:08:17;1.00;1.00;
12542;PMS3003;6337;49.556;25.594;2023-08-08T00:10:45;1.40;1.30;
12542;PMS3003;6337;49.556;25.594;2023-08-08T00:13:14;2.10;1.10;
12542;PMS3003;6337;49.556;25.594;2023-08-08T00:15:41;0.90;0.90;
12542;PMS3003;6337;49.556;25.594;2023-08-08T00:18:08;1.03;0.93;
12542;PMS3003;6337;49.556;25.594;2023-08-08T00:20:36;1.30;1.20;
12542;PMS3003;6337;49.556;25.594;2023-08-08T00:23:05;5.17;1.40;
12542;PMS3003;6337;49.556;25.594;2023-08-08T00:25:32;2.60;0.90;
12542;PMS3003;6337;49.556;25.594;2023-08-08T00:28:04;1.53;1.10;
12542;PMS3003;6337;49.556;25.594;2023-08-08T00:30:33;1.40;1.30;
12542;PMS3003;6337;49.556;25.594;2023-08-08T00:33:02;3.53;1.10;
12542;PMS3003;6337;49.556;25.594;2023-08-08T00:35:30;0.80;0.80;
12542;PMS3003;6337;49.556;25.594;2023-08-08T00:38:00;2.57;1.03;
12542;PMS3003;6337;49.556;25.594;2023-08-08T00:40:29;1.43;1.07;
12542;PMS3003;6337;49.556;25.594;2023-08-08T00:42:56;1.73;0.80;
12542;PMS3003;6337;49.556;25.594;2023-08-08T00:45:23;1.20;1.20;
12542;PMS3003;6337;49.556;25.594;2023-08-08T00:47:52;1.17;1.17;
12542;PMS3003;6337;49.556;25.594;2023-08-08T00:50:21;1.17;1.07;
12542;PMS3003;6337;49.556;25.594;2023-08-08T00:52:49;1.10;0.90;
12542;PMS3003;6337;49.556;25.594;2023-08-08T00:55:16;2.20;0.80;
12542;PMS3003;6337;49.556;25.594;2023-08-08T00:57:45;1.20;1.10;
12542;PMS3003;6337;49.556;25.594;2023-08-08T01:00:13;1.00;1.00;
12542;PMS3003;6337;49.556;25.594;2023-08-08T01:02:40;1.10;1.07;
12542;PMS3003;6337;49.556;25.594;2023-08-08T01:05:11;1.30;1.30;
12542;PMS3003;6337;49.556;25.594;2023-08-08T01:07:41;1.57;1.47;
12542;PMS3003;6337;49.556;25.594;2023-08-08T01:10:11;1.10;1.00;
12542;PMS3003;6337;49.556;25.594;2023-08-08T01:12:44;3.60;1.30;
12542;PMS3003;6337;49.556;25.594;2023-08-08T01:15:23;8.93;2.07;
12542;PMS3003;6337;49.556;25.594;2023-08-08T01:17:53;2.70;1.30;
12542;PMS3003;6337;49.556;25.594;2023-08-08T01:20:23;1.07;1.07;
12542;PMS3003;6337;49.556;25.594;2023-08-08T01:22:54;1.70;1.60;
12542;PMS3003;6337;49.556;25.594;2023-08-08T01:25:27;4.57;1.40;
12542;PMS3003;6337;49.556;25.594;2023-08-08T01:27:54;1.30;1.20;
12542;PMS3003;6337;49.556;25.594;2023-08-08T01:30:22;2.77;1.03;
12542;PMS3003;6337;49.556;25.594;2023-08-08T01:32:49;1.57;1.43;
12542;PMS3003;6337;49.556;25.594;2023-08-08T01:35:17;4.07;3.77;
12542;PMS3003;6337;49.556;25.594;2023-08-08T01:37:48;3.00;2.80;
12542;PMS3003;6337;49.556;25.594;2023-08-08T01:40:18;10.33;4.30;
12542;PMS3003;6337;49.556;25.594;2023-08-08T01:42:48;7.37;1.87;
12542;PMS3003;6337;49.556;25.594;2023-08-08T01:45:17;1.60;1.30;
12542;PMS3003;6337;49.556;25.594;2023-08-08T01:47:48;3.77;1.30;
12542;PMS3003;6337;49.556;25.594;2023-08-08T01:50:17;6.90;1.70;
12542;PMS3003;6337;49.556;25.594;2023-08-08T01:52:46;5.30;1.00;
12542;PMS3003;6337;49.556;25.594;2023-08-08T01:55:14;1.37;1.27;
12542;PMS3003;6337;49.556;25.594;2023-08-08T01:57:42;1.47;1.03;
12542;PMS3003;6337;49.556;25.594;2023-08-08T02:00:12;2.60;2.50;
12542;PMS3003;6337;49.556;25.594;2023-08-08T02:02:41;0.97;0.97;
12542;PMS3003;6337;49.556;25.594;2023-08-08T02:05:09;1.10;1.03;
12542;PMS3003;6337;49.556;25.594;2023-08-08T02:07:36;3.10;1.47;
12542;PMS3003;6337;49.556;25.594;2023-08-08T02:10:04;1.33;1.23;
12542;PMS3003;6337;49.556;25.594;2023-08-08T02:12:35;3.70;1.40;
12542;PMS3003;6337;49.556;25.594;2023-08-08T02:15:03;11.43;1.50;
12542;PMS3003;6337;49.556;25.594;2023-08-08T02:17:35;5.90;1.90;
12542;PMS3003;6337;49.556;25.594;2023-08-08T02:20:04;2.80;1.47;
12542;PMS3003;6337;49.556;25.594;2023-08-08T02:22:32;1.40;1.40;
12542;PMS3003;6337;49.556;25.594;2023-08-08T02:25:00;1.67;1.50;
12542;PMS3003;6337;49.556;25.594;2023-08-08T02:27:27;2.27;1.70;
12542;PMS3003;6337;49.556;25.594;2023-08-08T02:29:56;1.67;1.57;
12542;PMS3003;6337;49.556;25.594;2023-08-08T02:32:25;1.70;1.60;
12542;PMS3003;6337;49.556;25.594;2023-08-08T02:34:56;1.60;1.50;
12542;PMS3003;6337;49.556;25.594;2023-08-08T02:37:26;3.60;1.50;
12542;PMS3003;6337;49.556;25.594;2023-08-08T02:39:53;1.70;1.60;
12542;PMS3003;6337;49.556;25.594;2023-08-08T02:42:21;1.77;1.63;
12542;PMS3003;6337;49.556;25.594;2023-08-08T02:44:48;3.43;1.70;
12542;PMS3003;6337;49.556;25.594;2023-08-08T02:47:15;1.83;1.73;
12542;PMS3003;6337;49.556;25.594;2023-08-08T02:49:44;3.10;2.00;
12542;PMS3003;6337;49.556;25.594;2023-08-08T02:52:17;1.77;1.67;
12542;PMS3003;6337;49.556;25.594;2023-08-08T02:54:48;6.63;2.17;
12542;PMS3003;6337;49.556;25.594;2023-08-08T02:57:17;3.67;1.90;
12542;PMS3003;6337;49.556;25.594;2023-08-08T02:59:44;1.97;1.77;
12542;PMS3003;6337;49.556;25.594;2023-08-08T03:02:11;2.70;1.73;
12542;PMS3003;6337;49.556;25.594;2023-08-08T03:04:39;1.80;1.70;
12542;PMS3003;6337;49.556;25.594;2023-08-08T03:07:07;3.17;2.50;
12542;PMS3003;6337;49.556;25.594;2023-08-08T03:09:40;2.10;1.90;
12542;PMS3003;6337;49.556;25.594;2023-08-08T03:12:08;2.00;1.80;
12542;PMS3003;6337;49.556;25.594;2023-08-08T03:14:35;2.40;2.20;
12542;PMS3003;6337;49.556;25.594;2023-08-08T03:17:03;2.10;2.00;
12542;PMS3003;6337;49.556;25.594;2023-08-08T03:19:35;3.10;2.40;
12542;PMS3003;6337;49.556;25.594;2023-08-08T03:22:03;2.43;2.27;
12542;PMS3003;6337;49.556;25.594;2023-08-08T03:24:32;2.43;2.23;
12542;PMS3003;6337;49.556;25.594;2023-08-08T03:27:06;5.27;2.37;
12542;PMS3003;6337;49.556;25.594;2023-08-08T03:29:35;5.17;2.00;
12542;PMS3003;6337;49.556;25.594;2023-08-08T03:32:02;1.93;1.83;
12542;PMS3003;6337;49.556;25.594;2023-08-08T03:34:31;3.90;2.90;
12542;PMS3003;6337;49.556;25.594;2023-08-08T03:37:00;3.23;2.93;
12542;PMS3003;6337;49.556;25.594;2023-08-08T03:39:27;3.00;2.80;
12542;PMS3003;6337;49.556;25.594;2023-08-08T03:41:54;4.23;2.63;
12542;PMS3003;6337;49.556;25.594;2023-08-08T03:44:24;4.50;3.33;
12542;PMS3003;6337;49.556;25.594;2023-08-08T03:46:52;7.40;3.10;
12542;PMS3003;6337;49.556;25.594;2023-08-08T03:49:20;3.47;3.17;
12542;PMS3003;6337;49.556;25.594;2023-08-08T03:51:48;4.33;2.90;
12542;PMS3003;6337;49.556;25.594;2023-08-08T03:54:17;5.30;2.73;
12542;PMS3003;6337;49.556;25.594;2023-08-08T03:56:47;2.73;2.53;
12542;PMS3003;6337;49.556;25.594;2023-08-08T03:59:15;4.73;3.10;
12542;PMS3003;6337;49.556;25.594;2023-08-08T04:01:45;3.20;3.00;
12542;PMS3003;6337;49.556;25.594;2023-08-08T04:04:13;16.13;3.77;
12542;PMS3003;6337;49.556;25.594;2023-08-08T04:06:41;2.50;2.40;
12542;PMS3003;6337;49.556;25.594;2023-08-08T04:09:09;6.03;3.13;
12542;PMS3003;6337;49.556;25.594;2023-08-08T04:11:38;2.47;2.30;
12542;PMS3003;6337;49.556;25.594;2023-08-08T04:14:08;3.70;3.40;
12542;PMS3003;6337;49.556;25.594;2023-08-08T04:16:36;6.37;4.43;
12542;PMS3003;6337;49.556;25.594;2023-08-08T04:19:05;14.23;10.63;
12542;PMS3003;6337;49.556;25.594;2023-08-08T04:21:33;10.80;6.43;
12542;PMS3003;6337;49.556;25.594;2023-08-08T04:24:00;5.57;4.17;
12542;PMS3003;6337;49.556;25.594;2023-08-08T04:26:28;2.93;2.67;
12542;PMS3003;6337;49.556;25.594;2023-08-08T04:28:55;3.20;2.27;
12542;PMS3003;6337;49.556;25.594;2023-08-08T04:31:22;6.83;3.30;
12542;PMS3003;6337;49.556;25.594;2023-08-08T04:33:51;2.37;2.07;
12542;PMS3003;6337;49.556;25.594;2023-08-08T04:36:23;2.40;2.30;
12542;PMS3003;6337;49.556;25.594;2023-08-08T04:38:51;5.70;2.70;
12542;PMS3003;6337;49.556;25.594;2023-08-08T04:41:18;4.13;2.40;
12542;PMS3003;6337;49.556;25.594;2023-08-08T04:43:45;2.67;2.47;
12542;PMS3003;6337;49.556;25.594;2023-08-08T04:46:12;4.27;3.10;
12542;PMS3003;6337;49.556;25.594;2023-08-08T04:48:39;3.93;2.77;
12542;PMS3003;6337;49.556;25.594;2023-08-08T04:51:09;7.20;2.73;
12542;PMS3003;6337;49.556;25.594;2023-08-08T04:53:39;4.20;3.67;
12542;PMS3003;6337;49.556;25.594;2023-08-08T04:56:07;5.77;3.50;
12542;PMS3003;6337;49.556;25.594;2023-08-08T04:58:34;3.90;3.00;
12542;PMS3003;6337;49.556;25.594;2023-08-08T05:01:01;3.53;3.20;
12542;PMS3003;6337;49.556;25.594;2023-08-08T05:03:28;3.70;2.70;
12542;PMS3003;6337;49.556;25.594;2023-08-08T05:05:56;3.43;2.80;
12542;PMS3003;6337;49.556;25.594;2023-08-08T05:08:26;4.13;3.37;
12542;PMS3003;6337;49.556;25.594;2023-08-08T05:10:57;3.30;3.10;
12542;PMS3003;6337;49.556;25.594;2023-08-08T05:13:24;3.80;3.50;
12542;PMS3003;6337;49.556;25.594;2023-08-08T05:15:51;8.20;3.70;
12542;PMS3003;6337;49.556;25.594;2023-08-08T05:18:19;4.60;4.00;
12542;PMS3003;6337;49.556;25.594;2023-08-08T05:20:46;4.60;3.00;
12542;PMS3003;6337;49.556;25.594;2023-08-08T05:23:13;8.37;3.83;
12542;PMS3003;6337;49.556;25.594;2023-08-08T05:25:40;3.67;3.47;
12542;PMS3003;6337;49.556;25.594;2023-08-08T05:28:10;2.90;2.60;
12542;PMS3003;6337;49.556;25.594;2023-08-08T05:30:37;3.87;3.57;
12542;PMS3003;6337;49.556;25.594;2023-08-08T05:33:05;5.30;3.10;
12542;PMS3003;6337;49.556;25.594;2023-08-08T05:35:32;3.07;2.87;
12542;PMS3003;6337;49.556;25.594;2023-08-08T05:38:01;3.80;3.27;
12542;PMS3003;6337;49.556;25.594;2023-08-08T05:40:30;4.10;3.13;
12542;PMS3003;6337;49.556;25.594;2023-08-08T05:42:57;3.50;3.20;
12542;PMS3003;6337;49.556;25.594;2023-08-08T05:45:26;4.40;4.00;
12542;PMS3003;6337;49.556;25.594;2023-08-08T05:47:53;3.73;3.43;
12542;PMS3003;6337;49.556;25.594;2023-08-08T05:50:21;3.40;3.10;
12542;PMS3003;6337;49.556;25.594;2023-08-08T05:52:50;6.63;3.90;
12542;PMS3003;6337;49.556;25.594;2023-08-08T05:55:18;4.33;3.33;
12542;PMS3003;6337;49.556;25.594;2023-08-08T05:57:49;5.80;3.47;
12542;PMS3003;6337;49.556;25.594;2023-08-08T06:00:16;3.90;3.47;
12542;PMS3003;6337;49.556;25.594;2023-08-08T06:02:46;4.47;4.00;
12542;PMS3003;6337;49.556;25.594;2023-08-08T06:05:16;9.80;4.40;
12542;PMS3003;6337;49.556;25.594;2023-08-08T06:07:46;11.80;4.17;
12542;PMS3003;6337;49.556;25.594;2023-08-08T06:10:14;4.20;3.90;
12542;PMS3003;6337;49.556;25.594;2023-08-08T06:12:43;6.33;4.80;
12542;PMS3003;6337;49.556;25.594;2023-08-08T06:15:10;5.93;4.50;
12542;PMS3003;6337;49.556;25.594;2023-08-08T06:17:38;5.97;4.73;
12542;PMS3003;6337;49.556;25.594;2023-08-08T06:20:09;8.63;4.60;
12542;PMS3003;6337;49.556;25.594;2023-08-08T06:22:36;5.90;4.80;
12542;PMS3003;6337;49.556;25.594;2023-08-08T06:25:04;5.67;5.17;
12542;PMS3003;6337;49.556;25.594;2023-08-08T06:27:33;5.30;4.80;
12542;PMS3003;6337;49.556;25.594;2023-08-08T06:30:00;9.00;5.20;
12542;PMS3003;6337;49.556;25.594;2023-08-08T06:32:28;5.30;4.23;
12542;PMS3003;6337;49.556;25.594;2023-08-08T06:34:55;4.70;4.00;
12542;PMS3003;6337;49.556;25.594;2023-08-08T06:37:26;9.63;4.33;
12542;PMS3003;6337;49.556;25.594;2023-08-08T06:39:53;6.20;4.67;
12542;PMS3003;6337;49.556;25.594;2023-08-08T06:42:21;5.80;4.37;
12542;PMS3003;6337;49.556;25.594;2023-08-08T06:44:50;4.80;4.50;
12542;PMS3003;6337;49.556;25.594;2023-08-08T06:47:18;9.30;4.47;
12542;PMS3003;6337;49.556;25.594;2023-08-08T06:49:45;13.10;5.03;
12542;PMS3003;6337;49.556;25.594;2023-08-08T06:52:13;4.70;4.30;
12542;PMS3003;6337;49.556;25.594;2023-08-08T06:54:42;4.60;4.20;
12542;PMS3003;6337;49.556;25.594;2023-08-08T06:57:09;5.47;4.50;
12542;PMS3003;6337;49.556;25.594;2023-08-08T06:59:37;6.20;5.60;
12542;PMS3003;6337;49.556;25.594;2023-08-08T07:02:09;6.30;5.57;
12542;PMS3003;6337;49.556;25.594;2023-08-08T07:04:36;5.43;5.00;
12542;PMS3003;6337;49.556;25.594;2023-08-08T07:07:04;5.10;4.70;
12542;PMS3003;6337;49.556;25.594;2023-08-08T07:09:31;4.63;4.43;
12542;PMS3003;6337;49.556;25.594;2023-08-08T07:12:02;7.87;4.47;
12542;PMS3003;6337;49.556;25.594;2023-08-08T07:14:31;3.37;3.03;
12542;PMS3003;6337;49.556;25.594;2023-08-08T07:17:06;4.20;3.90;
12542;PMS3003;6337;49.556;25.594;2023-08-08T07:19:34;5.93;4.90;
12542;PMS3003;6337;49.556;25.594;2023-08-08T07:22:02;4.40;4.00;
12542;PMS3003;6337;49.556;25.594;2023-08-08T07:24:30;5.10;4.60;
12542;PMS3003;6337;49.556;25.594;2023-08-08T07:26:57;4.27;3.87;
12542;PMS3003;6337;49.556;25.594;2023-08-08T07:29:27;9.83;4.47;
12542;PMS3003;6337;49.556;25.594;2023-08-08T07:31:54;7.73;4.03;
12542;PMS3003;6337;49.556;25.594;2023-08-08T07:34:22;3.57;3.23;
12542;PMS3003;6337;49.556;25.594;2023-08-08T07:36:50;13.27;4.07;
12542;PMS3003;6337;49.556;25.594;2023-08-08T07:39:17;3.83;3.60;
12542;PMS3003;6337;49.556;25.594;2023-08-08T07:41:46;8.37;4.77;
12542;PMS3003;6337;49.556;25.594;2023-08-08T07:44:13;5.60;4.10;
12542;PMS3003;6337;49.556;25.594;2023-08-08T07:46:45;3.47;3.27;
12542;PMS3003;6337;49.556;25.594;2023-08-08T07:49:12;6.03;2.40;
12542;PMS3003;6337;49.556;25.594;2023-08-08T07:51:41;5.53;2.70;
12542;PMS3003;6337;49.556;25.594;2023-08-08T07:54:09;2.73;2.50;
12542;PMS3003;6337;49.556;25.594;2023-08-08T07:56:37;4.43;2.93;
12542;PMS3003;6337;49.556;25.594;2023-08-08T07:59:05;3.40;3.20;
12542;PMS3003;6337;49.556;25.594;2023-08-08T08:01:32;9.33;3.77;
12542;PMS3003;6337;49.556;25.594;2023-08-08T08:04:01;3.17;2.80;
12542;PMS3003;6337;49.556;25.594;2023-08-08T08:06:30;1.93;1.80;
12542;PMS3003;6337;49.556;25.594;2023-08-08T08:08:58;5.43;2.70;
12542;PMS3003;6337;49.556;25.594;2023-08-08T08:11:25;4.93;2.40;
12542;PMS3003;6337;49.556;25.594;2023-08-08T08:13:52;3.13;2.77;
12542;PMS3003;6337;49.556;25.594;2023-08-08T08:16:20;2.73;2.53;
12542;PMS3003;6337;49.556;25.594;2023-08-08T08:18:47;4.00;2.93;
12542;PMS3003;6337;49.556;25.594;2023-08-08T08:21:16;7.60;3.13;
12542;PMS3003;6337;49.556;25.594;2023-08-08T08:23:46;4.00;3.00;
12542;PMS3003;6337;49.556;25.594;2023-08-08T08:26:15;8.50;3.00;
12542;PMS3003;6337;49.556;25.594;2023-08-08T08:28:43;3.30;2.47;
12542;PMS3003;6337;49.556;25.594;2023-08-08T08:31:10;2.33;2.23;
12542;PMS3003;6337;49.556;25.594;2023-08-08T08:33:37;3.07;2.80;
12542;PMS3003;6337;49.556;25.594;2023-08-08T08:36:06;2.60;2.30;
12542;PMS3003;6337;49.556;25.594;2023-08-08T08:38:35;6.30;2.93;
12542;PMS3003;6337;49.556;25.594;2023-08-08T08:41:02;2.80;2.57;
12542;PMS3003;6337;49.556;25.594;2023-08-08T08:43:30;2.07;1.87;
12542;PMS3003;6337;49.556;25.594;2023-08-08T08:45:59;8.40;2.17;
12542;PMS3003;6337;49.556;25.594;2023-08-08T08:48:30;2.30;2.20;
12542;PMS3003;6337;49.556;25.594;2023-08-08T08:51:01;15.33;3.50;
12542;PMS3003;6337;49.556;25.594;2023-08-08T08:53:29;5.13;2.40;
12542;PMS3003;6337;49.556;25.594;2023-08-08T08:56:03;3.70;2.77;
12542;PMS3003;6337;49.556;25.594;2023-08-08T08:58:30;8.37;2.60;
12542;PMS3003;6337;49.556;25.594;2023-08-08T09:01:01;3.83;2.70;
12542;PMS3003;6337;49.556;25.594;2023-08-08T09:03:29;2.47;2.27;
12542;PMS3003;6337;49.556;25.594;2023-08-08T09:05:56;2.60;2.40;
12542;PMS3003;6337;49.556;25.594;2023-08-08T09:08:25;4.57;2.40;
12542;PMS3003;6337;49.556;25.594;2023-08-08T09:10:52;3.07;2.47;
12542;PMS3003;6337;49.556;25.594;2023-08-08T09:13:24;6.17;3.53;
12542;PMS3003;6337;49.556;25.594;2023-08-08T09:15:51;2.33;2.13;
12542;PMS3003;6337;49.556;25.594;2023-08-08T09:18:22;4.50;3.10;
12542;PMS3003;6337;49.556;25.594;2023-08-08T09:20:51;2.10;1.90;
12542;PMS3003;6337;49.556;25.594;2023-08-08T09:23:18;6.40;2.50;
12542;PMS3003;6337;49.556;25.594;2023-08-08T09:25:45;3.57;2.37;
12542;PMS3003;6337;49.556;25.594;2023-08-08T09:28:13;6.10;2.17;
12542;PMS3003;6337;49.556;25.594;2023-08-08T09:30:43;2.53;2.33;
12542;PMS3003;6337;49.556;25.594;2023-08-08T09:33:11;3.53;1.67;
12542;PMS3003;6337;49.556;25.594;2023-08-08T09:35:38;7.40;2.43;
12542;PMS3003;6337;49.556;25.594;2023-08-08T09:38:06;4.70;2.13;
12542;PMS3003;6337;49.556;25.594;2023-08-08T09:40:35;4.93;1.90;
12542;PMS3003;6337;49.556;25.594;2023-08-08T09:43:04;4.50;1.70;
12542;PMS3003;6337;49.556;25.594;2023-08-08T09:45:36;4.10;1.87;
12542;PMS3003;6337;49.556;25.594;2023-08-08T09:48:07;7.73;1.97;
12542;PMS3003;6337;49.556;25.594;2023-08-08T09:50:34;2.40;2.20;
12542;PMS3003;6337;49.556;25.594;2023-08-08T09:53:02;1.53;1.43;
12542;PMS3003;6337;49.556;25.594;2023-08-08T09:55:30;2.83;1.43;
12542;PMS3003;6337;49.556;25.594;2023-08-08T09:57:59;4.27;2.10;
12542;PMS3003;6337;49.556;25.594;2023-08-08T10:00:28;3.90;2.20;
12542;PMS3003;6337;49.556;25.594;2023-08-08T10:02:56;1.80;1.70;
12542;PMS3003;6337;49.556;25.594;2023-08-08T10:05:30;3.10;1.80;
12542;PMS3003;6337;49.556;25.594;2023-08-08T10:07:57;6.47;1.67;
12542;PMS3003;6337;49.556;25.594;2023-08-08T10:10:24;1.77;1.67;
12542;PMS3003;6337;49.556;25.594;2023-08-08T10:12:54;4.43;1.60;
12542;PMS3003;6337;49.556;25.594;2023-08-08T10:15:25;4.53;2.17;
12542;PMS3003;6337;49.556;25.594;2023-08-08T10:17:58;5.20;2.23;
12542;PMS3003;6337;49.556;25.594;2023-08-08T10:20:25;3.50;1.80;
12542;PMS3003;6337;49.556;25.594;2023-08-08T10:22:56;3.60;1.70;
12542;PMS3003;6337;49.556;25.594;2023-08-08T10:25:27;3.87;1.83;
12542;PMS3003;6337;49.556;25.594;2023-08-08T10:28:03;1.53;1.43;
12542;PMS3003;6337;49.556;25.594;2023-08-08T10:30:41;5.13;2.30;
12542;PMS3003;6337;49.556;25.594;2023-08-08T10:33:23;2.30;1.70;
12542;PMS3003;6337;49.556;25.594;2023-08-08T10:36:11;1.60;1.50;
12542;PMS3003;6337;49.556;25.594;2023-08-08T10:38:39;3.87;2.17;
12542;PMS3003;6337;49.556;25.594;2023-08-08T10:41:09;5.60;1.97;
12542;PMS3003;6337;49.556;25.594;2023-08-08T10:43:45;2.50;1.83;
12542;PMS3003;6337;49.556;25.594;2023-08-08T10:46:23;5.23;3.00;
12542;PMS3003;6337;49.556;25.594;2023-08-08T10:48:51;2.57;2.37;
12542;PMS3003;6337;49.556;25.594;2023-08-08T10:51:23;6.73;1.77;
12542;PMS3003;6337;49.556;25.594;2023-08-08T10:53:51;3.70;1.50;
12542;PMS3003;6337;49.556;25.594;2023-08-08T10:56:19;1.87;1.50;
12542;PMS3003;6337;49.556;25.594;2023-08-08T10:58:52;1.57;1.47;
12542;PMS3003;6337;49.556;25.594;2023-08-08T11:01:19;4.23;1.80;
12542;PMS3003;6337;49.556;25.594;2023-08-08T11:03:51;5.80;1.83;
12542;PMS3003;6337;49.556;25.594;2023-08-08T11:06:19;2.93;2.00;
12542;PMS3003;6337;49.556;25.594;2023-08-08T11:08:49;2.37;1.97;
12542;PMS3003;6337;49.556;25.594;2023-08-08T11:11:17;5.53;2.13;
12542;PMS3003;6337;49.556;25.594;2023-08-08T11:13:45;1.40;1.30;
12542;PMS3003;6337;49.556;25.594;2023-08-08T11:16:14;7.70;2.70;
12542;PMS3003;6337;49.556;25.594;2023-08-08T11:18:45;1.93;1.43;
12542;PMS3003;6337;49.556;25.594;2023-08-08T11:21:12;4.87;2.77;
12542;PMS3003;6337;49.556;25.594;2023-08-08T11:27:12;3.63;2.63;
12542;PMS3003;6337;49.556;25.594;2023-08-08T11:29:40;5.57;1.83;
12542;PMS3003;6337;49.556;25.594;2023-08-08T11:32:09;4.23;1.80;
12542;PMS3003;6337;49.556;25.594;2023-08-08T11:34:37;6.30;2.80;
12542;PMS3003;6337;49.556;25.594;2023-08-08T11:37:05;9.63;2.23;
12542;PMS3003;6337;49.556;25.594;2023-08-08T11:39:33;2.40;2.20;
12542;PMS3003;6337;49.556;25.594;2023-08-08T11:42:01;4.90;2.00;
12542;PMS3003;6337;49.556;25.594;2023-08-08T11:44:32;4.57;2.60;
12542;PMS3003;6337;49.556;25.594;2023-08-08T11:49:57;5.67;2.10;
12542;PMS3003;6337;49.556;25.594;2023-08-08T11:52:24;2.80;1.70;
12542;PMS3003;6337;49.556;25.594;2023-08-08T11:54:52;4.20;1.60;
12542;PMS3003;6337;49.556;25.594;2023-08-08T11:57:22;2.03;1.80;
12542;PMS3003;6337;49.556;25.594;2023-08-08T11:59:52;6.57;1.30;
12542;PMS3003;6337;49.556;25.594;2023-08-08T12:02:22;3.87;1.53;
12542;PMS3003;6337;49.556;25.594;2023-08-08T12:04:49;1.80;1.70;
12542;PMS3003;6337;49.556;25.594;2023-08-08T12:07:17;3.93;1.90;
12542;PMS3003;6337;49.556;25.594;2023-08-08T12:09:46;2.10;1.53;
12542;PMS3003;6337;49.556;25.594;2023-08-08T12:12:19;7.47;2.00;
12542;PMS3003;6337;49.556;25.594;2023-08-08T12:14:46;2.67;1.70;
12542;PMS3003;6337;49.556;25.594;2023-08-08T12:17:17;3.37;1.80;
12542;PMS3003;6337;49.556;25.594;2023-08-08T12:19:45;3.23;1.90;
12542;PMS3003;6337;49.556;25.594;2023-08-08T12:22:15;2.17;2.07;
12542;PMS3003;6337;49.556;25.594;2023-08-08T12:24:42;4.13;1.83;
12542;PMS3003;6337;49.556;25.594;2023-08-08T12:27:10;3.60;1.73;
12542;PMS3003;6337;49.556;25.594;2023-08-08T12:29:38;4.67;1.80;
12542;PMS3003;6337;49.556;25.594;2023-08-08T12:32:08;6.80;2.00;
12542;PMS3003;6337;49.556;25.594;2023-08-08T12:34:40;2.17;2.03;
12542;PMS3003;6337;49.556;25.594;2023-08-08T12:37:09;3.20;1.80;
12542;PMS3003;6337;49.556;25.594;2023-08-08T12:39:37;2.07;1.57;
12542;PMS3003;6337;49.556;25.594;2023-08-08T12:42:05;6.33;1.37;
12542;PMS3003;6337;49.556;25.594;2023-08-08T12:44:37;2.60;1.77;
12542;PMS3003;6337;49.556;25.594;2023-08-08T12:47:11;4.63;1.50;
12542;PMS3003;6337;49.556;25.594;2023-08-08T12:52:33;2.87;1.53;
12542;PMS3003;6337;49.556;25.594;2023-08-08T12:58:36;6.90;1.80;
12542;PMS3003;6337;49.556;25.594;2023-08-08T13:01:10;6.70;2.50;
12542;PMS3003;6337;49.556;25.594;2023-08-08T13:03:38;2.10;1.87;
12542;PMS3003;6337;49.556;25.594;2023-08-08T13:06:08;2.53;1.57;
12542;PMS3003;6337;49.556;25.594;2023-08-08T13:08:37;2.60;1.23;
12542;PMS3003;6337;49.556;25.594;2023-08-08T13:11:11;2.73;1.50;
12542;PMS3003;6337;49.556;25.594;2023-08-08T13:13:39;2.53;2.10;
12542;PMS3003;6337;49.556;25.594;2023-08-08T13:16:07;1.57;1.40;
12542;PMS3003;6337;49.556;25.594;2023-08-08T13:18:39;7.40;1.33;
12542;PMS3003;6337;49.556;25.594;2023-08-08T13:21:14;2.20;1.40;
12542;PMS3003;6337;49.556;25.594;2023-08-08T13:23:42;1.77;1.50;
12542;PMS3003;6337;49.556;25.594;2023-08-08T13:26:12;4.13;1.40;
12542;PMS3003;6337;49.556;25.594;2023-08-08T13:28:40;1.30;1.17;
12542;PMS3003;6337;49.556;25.594;2023-08-08T13:31:08;1.60;1.30;
12542;PMS3003;6337;49.556;25.594;2023-08-08T13:33:36;1.73;1.13;
12542;PMS3003;6337;49.556;25.594;2023-08-08T13:36:08;1.17;0.90;
12542;PMS3003;6337;49.556;25.594;2023-08-08T13:38:37;1.77;1.50;
12542;PMS3003;6337;49.556;25.594;2023-08-08T13:41:05;4.53;1.40;
12542;PMS3003;6337;49.556;25.594;2023-08-08T13:43:32;7.40;1.20;
12542;PMS3003;6337;49.556;25.594;2023-08-08T13:46:00;4.20;0.97;
12542;PMS3003;6337;49.556;25.594;2023-08-08T13:48:32;8.50;1.50;
12542;PMS3003;6337;49.556;25.594;2023-08-08T13:51:02;1.50;1.40;
12542;PMS3003;6337;49.556;25.594;2023-08-08T13:53:33;1.00;0.90;
12542;PMS3003;6337;49.556;25.594;2023-08-08T13:56:00;8.57;1.87;
12542;PMS3003;6337;49.556;25.594;2023-08-08T13:58:28;1.37;1.27;
12542;PMS3003;6337;49.556;25.594;2023-08-08T14:00:56;4.50;1.90;
12542;PMS3003;6337;49.556;25.594;2023-08-08T14:03:23;1.10;1.10;
12542;PMS3003;6337;49.556;25.594;2023-08-08T14:05:51;7.70;1.30;
12542;PMS3003;6337;49.556;25.594;2023-08-08T14:08:18;2.60;1.40;
12542;PMS3003;6337;49.556;25.594;2023-08-08T14:10:48;1.57;1.37;
12542;PMS3003;6337;49.556;25.594;2023-08-08T14:13:15;15.50;9.30;
12542;PMS3003;6337;49.556;25.594;2023-08-08T14:15:44;11.13;5.80;
12542;PMS3003;6337;49.556;25.594;2023-08-08T14:18:13;5.10;3.07;
12542;PMS3003;6337;49.556;25.594;2023-08-08T14:20:41;1.70;1.40;
12542;PMS3003;6337;49.556;25.594;2023-08-08T14:23:09;2.20;1.07;
12542;PMS3003;6337;49.556;25.594;2023-08-08T14:25:41;2.73;1.23;
12542;PMS3003;6337;49.556;25.594;2023-08-08T14:28:13;2.67;1.27;
12542;PMS3003;6337;49.556;25.594;2023-08-08T14:30:42;2.00;1.73;
12542;PMS3003;6337;49.556;25.594;2023-08-08T14:33:14;7.07;1.40;
12542;PMS3003;6337;49.556;25.594;2023-08-08T14:35:42;2.97;1.63;
12542;PMS3003;6337;49.556;25.594;2023-08-08T14:38:11;1.77;1.23;
12542;PMS3003;6337;49.556;25.594;2023-08-08T14:40:38;1.97;1.03;
12542;PMS3003;6337;49.556;25.594;2023-08-08T14:43:05;2.20;1.73;
12542;PMS3003;6337;49.556;25.594;2023-08-08T14:45:39;2.13;1.40;
12542;PMS3003;6337;49.556;25.594;2023-08-08T14:48:07;4.50;1.30;
12542;PMS3003;6337;49.556;25.594;2023-08-08T14:50:36;8.70;2.10;
12542;PMS3003;6337;49.556;25.594;2023-08-08T14:53:04;4.30;3.07;
12542;PMS3003;6337;49.556;25.594;2023-08-08T14:55:34;8.70;2.43;
12542;PMS3003;6337;49.556;25.594;2023-08-08T14:58:04;4.27;1.80;
12542;PMS3003;6337;49.556;25.594;2023-08-08T15:03:29;4.60;2.03;
12542;PMS3003;6337;49.556;25.594;2023-08-08T15:05:58;4.93;2.00;
12542;PMS3003;6337;49.556;25.594;2023-08-08T15:08:35;2.37;1.40;
12542;PMS3003;6337;49.556;25.594;2023-08-08T15:11:03;1.83;1.70;
12542;PMS3003;6337;49.556;25.594;2023-08-08T15:16:14;2.03;1.90;
12542;PMS3003;6337;49.556;25.594;2023-08-08T15:18:41;2.27;2.17;
12542;PMS3003;6337;49.556;25.594;2023-08-08T15:21:11;2.80;1.60;
12542;PMS3003;6337;49.556;25.594;2023-08-08T15:23:44;2.40;1.90;
12542;PMS3003;6337;49.556;25.594;2023-08-08T15:26:13;1.83;1.40;
12542;PMS3003;6337;49.556;25.594;2023-08-08T16:29:22;3.90;1.30;
12542;PMS3003;6337;49.556;25.594;2023-08-08T16:31:49;2.73;1.37;
12542;PMS3003;6337;49.556;25.594;2023-08-08T16:34:27;3.30;1.30;
12542;PMS3003;6337;49.556;25.594;2023-08-08T16:36:56;4.90;1.20;
12542;PMS3003;6337;49.556;25.594;2023-08-08T16:39:24;4.83;1.53;
12542;PMS3003;6337;49.556;25.594;2023-08-08T16:41:52;1.50;1.30;
12542;PMS3003;6337;49.556;25.594;2023-08-08T16:44:26;1.93;1.77;